sensor_id;sensor_type;location;lat;lon;timestamp;P1;durP1;ratioP1;P2;durP2;ratioP2
10248;SDS011;5169;50.560;9.714;2023-12-22T00:01:55;11.47;;;2.37;;
10248;SDS011;5169;50.560;9.714;2023-12-22T00:04:21;8.90;;;2.20;;
10248;SDS011;5169;50.560;9.714;2023-12-22T00:06:46;9.07;;;2.83;;
10248;SDS011;5169;50.560;9.714;2023-12-22T00:09:16;10.90;;;2.53;;
10248;SDS011;5169;50.560;9.714;2023-12-22T00:11:44;14.27;;;2.77;;
10248;SDS011;5169;50.560;9.714;2023-12-22T00:14:10;7.77;;;2.47;;
10248;SDS011;5169;50.560;9.714;2023-12-22T00:16:38;10.80;;;2.27;;
10248;SDS011;5169;50.560;9.714;2023-12-22T00:19:04;7.03;;;2.10;;
10248;SDS011;5169;50.560;9.714;2023-12-22T00:21:29;10.73;;;2.37;;
10248;SDS011;5169;50.560;9.714;2023-12-22T00:23:55;9.77;;;2.60;;
10248;SDS011;5169;50.560;9.714;2023-12-22T00:26:21;9.77;;;3.17;;
10248;SDS011;5169;50.560;9.714;2023-12-22T00:28:47;5.97;;;1.77;;
10248;SDS011;5169;50.560;9.714;2023-12-22T00:31:15;9.07;;;2.00;;
10248;SDS011;5169;50.560;9.714;2023-12-22T00:33:40;12.13;;;2.13;;
10248;SDS011;5169;50.560;9.714;2023-12-22T00:36:06;7.97;;;2.17;;
10248;SDS011;5169;50.560;9.714;2023-12-22T00:38:32;9.40;;;2.50;;
10248;SDS011;5169;50.560;9.714;2023-12-22T00:41:00;6.73;;;1.40;;
10248;SDS011;5169;50.560;9.714;2023-12-22T00:43:26;10.23;;;2.40;;
10248;SDS011;5169;50.560;9.714;2023-12-22T00:45:51;5.27;;;2.03;;
10248;SDS011;5169;50.560;9.714;2023-12-22T00:48:17;8.97;;;2.37;;
10248;SDS011;5169;50.560;9.714;2023-12-22T00:50:43;10.40;;;3.40;;
10248;SDS011;5169;50.560;9.714;2023-12-22T00:53:08;6.40;;;2.70;;
10248;SDS011;5169;50.560;9.714;2023-12-22T00:55:35;8.33;;;3.40;;
10248;SDS011;5169;50.560;9.714;2023-12-22T00:58:00;6.93;;;1.30;;
10248;SDS011;5169;50.560;9.714;2023-12-22T01:00:26;3.80;;;1.40;;
10248;SDS011;5169;50.560;9.714;2023-12-22T01:02:53;6.50;;;1.40;;
10248;SDS011;5169;50.560;9.714;2023-12-22T01:05:19;4.00;;;1.00;;
10248;SDS011;5169;50.560;9.714;2023-12-22T01:07:49;4.33;;;1.73;;
10248;SDS011;5169;50.560;9.714;2023-12-22T01:10:15;4.70;;;1.53;;
10248;SDS011;5169;50.560;9.714;2023-12-22T01:12:40;3.90;;;1.37;;
10248;SDS011;5169;50.560;9.714;2023-12-22T01:15:06;6.13;;;1.27;;
10248;SDS011;5169;50.560;9.714;2023-12-22T01:17:32;4.53;;;1.10;;
10248;SDS011;5169;50.560;9.714;2023-12-22T01:19:57;5.83;;;1.83;;
10248;SDS011;5169;50.560;9.714;2023-12-22T01:22:25;5.50;;;2.47;;
10248;SDS011;5169;50.560;9.714;2023-12-22T01:24:51;2.50;;;1.30;;
10248;SDS011;5169;50.560;9.714;2023-12-22T01:27:16;3.53;;;1.10;;
10248;SDS011;5169;50.560;9.714;2023-12-22T01:29:42;6.37;;;1.43;;
10248;SDS011;5169;50.560;9.714;2023-12-22T01:32:07;6.00;;;1.03;;
10248;SDS011;5169;50.560;9.714;2023-12-22T01:34:35;5.20;;;1.30;;
10248;SDS011;5169;50.560;9.714;2023-12-22T01:37:03;3.17;;;1.40;;
10248;SDS011;5169;50.560;9.714;2023-12-22T01:39:28;6.83;;;1.90;;
10248;SDS011;5169;50.560;9.714;2023-12-22T01:41:54;7.10;;;1.67;;
10248;SDS011;5169;50.560;9.714;2023-12-22T01:44:20;5.00;;;1.30;;
10248;SDS011;5169;50.560;9.714;2023-12-22T01:46:45;4.33;;;1.50;;
10248;SDS011;5169;50.560;9.714;2023-12-22T01:49:11;6.30;;;1.60;;
10248;SDS011;5169;50.560;9.714;2023-12-22T01:51:37;5.80;;;1.93;;
10248;SDS011;5169;50.560;9.714;2023-12-22T01:54:05;6.77;;;1.43;;
10248;SDS011;5169;50.560;9.714;2023-12-22T01:56:34;5.60;;;1.73;;
10248;SDS011;5169;50.560;9.714;2023-12-22T01:59:00;3.80;;;1.83;;
10248;SDS011;5169;50.560;9.714;2023-12-22T02:01:29;5.03;;;1.00;;
10248;SDS011;5169;50.560;9.714;2023-12-22T02:03:54;4.93;;;1.10;;
10248;SDS011;5169;50.560;9.714;2023-12-22T02:06:24;3.50;;;1.40;;
10248;SDS011;5169;50.560;9.714;2023-12-22T02:08:49;4.47;;;1.20;;
10248;SDS011;5169;50.560;9.714;2023-12-22T02:11:15;5.23;;;1.17;;
10248;SDS011;5169;50.560;9.714;2023-12-22T02:13:44;5.43;;;1.33;;
10248;SDS011;5169;50.560;9.714;2023-12-22T02:19:15;4.53;;;1.33;;
10248;SDS011;5169;50.560;9.714;2023-12-22T02:22:00;5.03;;;1.03;;
10248;SDS011;5169;50.560;9.714;2023-12-22T02:24:32;5.57;;;1.13;;
10248;SDS011;5169;50.560;9.714;2023-12-22T02:27:06;2.70;;;1.10;;
10248;SDS011;5169;50.560;9.714;2023-12-22T02:29:43;4.20;;;1.37;;
10248;SDS011;5169;50.560;9.714;2023-12-22T02:32:25;5.67;;;1.43;;
10248;SDS011;5169;50.560;9.714;2023-12-22T02:34:55;2.33;;;0.97;;
10248;SDS011;5169;50.560;9.714;2023-12-22T02:37:21;7.33;;;1.07;;
10248;SDS011;5169;50.560;9.714;2023-12-22T02:39:48;4.07;;;1.40;;
10248;SDS011;5169;50.560;9.714;2023-12-22T02:42:15;2.67;;;0.90;;
10248;SDS011;5169;50.560;9.714;2023-12-22T02:44:47;4.27;;;1.27;;
10248;SDS011;5169;50.560;9.714;2023-12-22T02:47:12;5.67;;;1.53;;
10248;SDS011;5169;50.560;9.714;2023-12-22T02:49:40;3.43;;;0.70;;
10248;SDS011;5169;50.560;9.714;2023-12-22T02:52:06;5.07;;;1.10;;
10248;SDS011;5169;50.560;9.714;2023-12-22T02:54:31;4.17;;;1.30;;
10248;SDS011;5169;50.560;9.714;2023-12-22T02:57:00;4.63;;;1.10;;
10248;SDS011;5169;50.560;9.714;2023-12-22T02:59:26;5.07;;;1.47;;
10248;SDS011;5169;50.560;9.714;2023-12-22T03:01:53;2.97;;;0.97;;
10248;SDS011;5169;50.560;9.714;2023-12-22T03:04:19;6.63;;;1.57;;
10248;SDS011;5169;50.560;9.714;2023-12-22T03:06:46;5.33;;;1.30;;
10248;SDS011;5169;50.560;9.714;2023-12-22T03:09:12;9.87;;;1.67;;
10248;SDS011;5169;50.560;9.714;2023-12-22T03:11:37;4.23;;;1.60;;
10248;SDS011;5169;50.560;9.714;2023-12-22T03:14:03;6.37;;;1.23;;
10248;SDS011;5169;50.560;9.714;2023-12-22T03:16:29;4.10;;;1.23;;
10248;SDS011;5169;50.560;9.714;2023-12-22T03:18:56;8.23;;;1.90;;
10248;SDS011;5169;50.560;9.714;2023-12-22T03:21:22;2.87;;;0.93;;
10248;SDS011;5169;50.560;9.714;2023-12-22T03:23:47;4.50;;;1.23;;
10248;SDS011;5169;50.560;9.714;2023-12-22T03:26:15;3.70;;;1.23;;
10248;SDS011;5169;50.560;9.714;2023-12-22T03:28:41;6.27;;;1.30;;
10248;SDS011;5169;50.560;9.714;2023-12-22T03:31:11;5.27;;;0.77;;
10248;SDS011;5169;50.560;9.714;2023-12-22T03:33:37;4.77;;;1.27;;
10248;SDS011;5169;50.560;9.714;2023-12-22T03:36:05;5.40;;;1.10;;
10248;SDS011;5169;50.560;9.714;2023-12-22T03:38:30;3.67;;;0.90;;
10248;SDS011;5169;50.560;9.714;2023-12-22T03:40:56;3.43;;;1.10;;
10248;SDS011;5169;50.560;9.714;2023-12-22T03:43:24;2.57;;;0.90;;
10248;SDS011;5169;50.560;9.714;2023-12-22T03:45:50;2.83;;;1.00;;
10248;SDS011;5169;50.560;9.714;2023-12-22T03:48:15;6.60;;;1.30;;
10248;SDS011;5169;50.560;9.714;2023-12-22T03:50:41;2.37;;;0.63;;
10248;SDS011;5169;50.560;9.714;2023-12-22T03:53:06;3.20;;;0.77;;
10248;SDS011;5169;50.560;9.714;2023-12-22T03:55:32;3.77;;;0.80;;
10248;SDS011;5169;50.560;9.714;2023-12-22T03:57:57;4.93;;;1.13;;
10248;SDS011;5169;50.560;9.714;2023-12-22T04:00:23;5.43;;;1.17;;
10248;SDS011;5169;50.560;9.714;2023-12-22T04:02:49;2.93;;;0.80;;
10248;SDS011;5169;50.560;9.714;2023-12-22T04:05:14;3.00;;;1.03;;
10248;SDS011;5169;50.560;9.714;2023-12-22T04:07:40;4.30;;;0.87;;
10248;SDS011;5169;50.560;9.714;2023-12-22T04:10:05;2.00;;;0.80;;
10248;SDS011;5169;50.560;9.714;2023-12-22T04:12:31;3.80;;;0.80;;
10248;SDS011;5169;50.560;9.714;2023-12-22T04:14:57;3.50;;;0.73;;
10248;SDS011;5169;50.560;9.714;2023-12-22T04:17:23;1.57;;;0.63;;
10248;SDS011;5169;50.560;9.714;2023-12-22T04:19:48;1.53;;;0.50;;
10248;SDS011;5169;50.560;9.714;2023-12-22T04:22:14;3.43;;;1.03;;
10248;SDS011;5169;50.560;9.714;2023-12-22T04:24:39;2.03;;;0.93;;
10248;SDS011;5169;50.560;9.714;2023-12-22T04:27:05;3.07;;;0.80;;
10248;SDS011;5169;50.560;9.714;2023-12-22T04:29:31;3.37;;;0.73;;
10248;SDS011;5169;50.560;9.714;2023-12-22T04:31:57;2.30;;;0.60;;
10248;SDS011;5169;50.560;9.714;2023-12-22T04:34:22;1.33;;;0.70;;
10248;SDS011;5169;50.560;9.714;2023-12-22T04:36:48;2.20;;;0.53;;
10248;SDS011;5169;50.560;9.714;2023-12-22T04:39:13;4.83;;;0.70;;
10248;SDS011;5169;50.560;9.714;2023-12-22T04:41:39;1.33;;;0.67;;
10248;SDS011;5169;50.560;9.714;2023-12-22T04:44:04;2.53;;;0.53;;
10248;SDS011;5169;50.560;9.714;2023-12-22T04:46:35;1.07;;;0.50;;
10248;SDS011;5169;50.560;9.714;2023-12-22T04:49:03;3.53;;;0.87;;
10248;SDS011;5169;50.560;9.714;2023-12-22T04:51:30;3.10;;;0.77;;
10248;SDS011;5169;50.560;9.714;2023-12-22T04:53:56;4.60;;;0.73;;
10248;SDS011;5169;50.560;9.714;2023-12-22T04:56:21;2.13;;;0.93;;
10248;SDS011;5169;50.560;9.714;2023-12-22T04:58:50;3.97;;;0.53;;
10248;SDS011;5169;50.560;9.714;2023-12-22T05:01:15;1.17;;;0.63;;
10248;SDS011;5169;50.560;9.714;2023-12-22T05:03:44;3.83;;;0.67;;
10248;SDS011;5169;50.560;9.714;2023-12-22T05:06:10;2.73;;;0.80;;
10248;SDS011;5169;50.560;9.714;2023-12-22T05:08:37;2.40;;;0.83;;
10248;SDS011;5169;50.560;9.714;2023-12-22T05:11:03;1.90;;;0.70;;
10248;SDS011;5169;50.560;9.714;2023-12-22T05:13:28;1.83;;;0.73;;
10248;SDS011;5169;50.560;9.714;2023-12-22T05:15:54;4.30;;;0.90;;
10248;SDS011;5169;50.560;9.714;2023-12-22T05:18:20;4.37;;;1.30;;
10248;SDS011;5169;50.560;9.714;2023-12-22T05:20:45;7.53;;;2.90;;
10248;SDS011;5169;50.560;9.714;2023-12-22T05:23:15;2.27;;;1.53;;
10248;SDS011;5169;50.560;9.714;2023-12-22T05:25:43;2.87;;;1.00;;
10248;SDS011;5169;50.560;9.714;2023-12-22T05:28:09;2.67;;;0.80;;
10248;SDS011;5169;50.560;9.714;2023-12-22T05:30:37;1.97;;;1.10;;
10248;SDS011;5169;50.560;9.714;2023-12-22T05:33:03;3.40;;;0.77;;
10248;SDS011;5169;50.560;9.714;2023-12-22T05:35:28;3.23;;;0.60;;
10248;SDS011;5169;50.560;9.714;2023-12-22T05:37:54;2.07;;;0.70;;
10248;SDS011;5169;50.560;9.714;2023-12-22T05:40:19;2.47;;;0.43;;
10248;SDS011;5169;50.560;9.714;2023-12-22T05:42:45;6.67;;;1.03;;
10248;SDS011;5169;50.560;9.714;2023-12-22T05:45:11;2.07;;;0.57;;
10248;SDS011;5169;50.560;9.714;2023-12-22T05:47:40;3.03;;;0.77;;
10248;SDS011;5169;50.560;9.714;2023-12-22T05:50:06;2.90;;;0.80;;
10248;SDS011;5169;50.560;9.714;2023-12-22T05:52:35;3.03;;;0.63;;
10248;SDS011;5169;50.560;9.714;2023-12-22T05:55:01;1.80;;;0.70;;
10248;SDS011;5169;50.560;9.714;2023-12-22T05:57:27;4.50;;;0.97;;
10248;SDS011;5169;50.560;9.714;2023-12-22T05:59:57;5.30;;;1.00;;
10248;SDS011;5169;50.560;9.714;2023-12-22T06:02:23;2.23;;;0.90;;
10248;SDS011;5169;50.560;9.714;2023-12-22T06:04:52;3.40;;;1.30;;
10248;SDS011;5169;50.560;9.714;2023-12-22T06:07:18;2.43;;;1.50;;
10248;SDS011;5169;50.560;9.714;2023-12-22T06:09:44;3.23;;;1.10;;
10248;SDS011;5169;50.560;9.714;2023-12-22T06:12:10;5.77;;;1.50;;
10248;SDS011;5169;50.560;9.714;2023-12-22T06:14:38;6.50;;;1.10;;
10248;SDS011;5169;50.560;9.714;2023-12-22T06:17:03;1.60;;;0.77;;
10248;SDS011;5169;50.560;9.714;2023-12-22T06:19:29;2.20;;;0.80;;
10248;SDS011;5169;50.560;9.714;2023-12-22T06:21:55;2.60;;;0.87;;
10248;SDS011;5169;50.560;9.714;2023-12-22T06:24:25;3.17;;;1.43;;
10248;SDS011;5169;50.560;9.714;2023-12-22T06:26:52;3.80;;;1.30;;
10248;SDS011;5169;50.560;9.714;2023-12-22T06:29:23;4.67;;;1.20;;
10248;SDS011;5169;50.560;9.714;2023-12-22T06:31:48;2.30;;;1.47;;
10248;SDS011;5169;50.560;9.714;2023-12-22T06:34:16;6.10;;;1.80;;
10248;SDS011;5169;50.560;9.714;2023-12-22T06:36:41;4.03;;;1.50;;
10248;SDS011;5169;50.560;9.714;2023-12-22T06:39:08;4.73;;;1.57;;
10248;SDS011;5169;50.560;9.714;2023-12-22T06:41:33;2.97;;;1.17;;
10248;SDS011;5169;50.560;9.714;2023-12-22T06:43:59;3.07;;;1.23;;
10248;SDS011;5169;50.560;9.714;2023-12-22T06:46:25;3.30;;;1.20;;
10248;SDS011;5169;50.560;9.714;2023-12-22T06:48:54;2.07;;;0.90;;
10248;SDS011;5169;50.560;9.714;2023-12-22T06:51:24;2.10;;;1.00;;
10248;SDS011;5169;50.560;9.714;2023-12-22T06:53:58;2.47;;;1.00;;
10248;SDS011;5169;50.560;9.714;2023-12-22T06:56:27;4.10;;;1.37;;
10248;SDS011;5169;50.560;9.714;2023-12-22T06:58:56;4.00;;;1.13;;
10248;SDS011;5169;50.560;9.714;2023-12-22T07:01:23;3.10;;;1.47;;
10248;SDS011;5169;50.560;9.714;2023-12-22T07:03:55;3.87;;;1.40;;
10248;SDS011;5169;50.560;9.714;2023-12-22T07:06:24;3.30;;;1.57;;
10248;SDS011;5169;50.560;9.714;2023-12-22T07:09:35;3.87;;;1.20;;
10248;SDS011;5169;50.560;9.714;2023-12-22T07:11:44;3.83;;;1.33;;
10248;SDS011;5169;50.560;9.714;2023-12-22T07:14:09;1.83;;;0.90;;
10248;SDS011;5169;50.560;9.714;2023-12-22T07:16:35;4.53;;;1.00;;
10248;SDS011;5169;50.560;9.714;2023-12-22T07:19:01;3.37;;;1.40;;
10248;SDS011;5169;50.560;9.714;2023-12-22T07:21:27;6.67;;;1.17;;
10248;SDS011;5169;50.560;9.714;2023-12-22T07:23:58;5.13;;;1.23;;
10248;SDS011;5169;50.560;9.714;2023-12-22T07:26:23;3.47;;;1.27;;
10248;SDS011;5169;50.560;9.714;2023-12-22T07:28:51;4.87;;;1.77;;
10248;SDS011;5169;50.560;9.714;2023-12-22T07:31:17;3.13;;;1.27;;
10248;SDS011;5169;50.560;9.714;2023-12-22T07:33:43;3.37;;;1.27;;
10248;SDS011;5169;50.560;9.714;2023-12-22T07:36:08;3.07;;;1.10;;
10248;SDS011;5169;50.560;9.714;2023-12-22T07:38:35;1.50;;;0.90;;
10248;SDS011;5169;50.560;9.714;2023-12-22T07:41:06;2.90;;;1.10;;
10248;SDS011;5169;50.560;9.714;2023-12-22T07:43:32;6.93;;;1.43;;
10248;SDS011;5169;50.560;9.714;2023-12-22T07:46:00;2.70;;;1.10;;
10248;SDS011;5169;50.560;9.714;2023-12-22T07:48:26;1.83;;;1.07;;
10248;SDS011;5169;50.560;9.714;2023-12-22T07:50:51;6.20;;;1.40;;
10248;SDS011;5169;50.560;9.714;2023-12-22T07:53:17;6.83;;;1.33;;
10248;SDS011;5169;50.560;9.714;2023-12-22T07:55:45;2.93;;;1.10;;
10248;SDS011;5169;50.560;9.714;2023-12-22T07:58:11;3.27;;;0.87;;
10248;SDS011;5169;50.560;9.714;2023-12-22T08:00:37;3.93;;;1.00;;
10248;SDS011;5169;50.560;9.714;2023-12-22T08:03:07;2.60;;;1.00;;
10248;SDS011;5169;50.560;9.714;2023-12-22T08:05:34;3.50;;;0.93;;
10248;SDS011;5169;50.560;9.714;2023-12-22T08:08:00;2.13;;;1.00;;
10248;SDS011;5169;50.560;9.714;2023-12-22T08:10:25;3.70;;;0.90;;
10248;SDS011;5169;50.560;9.714;2023-12-22T08:12:52;3.47;;;1.10;;
10248;SDS011;5169;50.560;9.714;2023-12-22T08:15:20;2.77;;;1.00;;
10248;SDS011;5169;50.560;9.714;2023-12-22T08:17:49;3.63;;;1.03;;
10248;SDS011;5169;50.560;9.714;2023-12-22T08:20:17;2.77;;;0.60;;
10248;SDS011;5169;50.560;9.714;2023-12-22T08:22:47;230.77;;;51.90;;
10248;SDS011;5169;50.560;9.714;2023-12-22T08:25:16;239.17;;;52.30;;
10248;SDS011;5169;50.560;9.714;2023-12-22T08:27:47;234.20;;;52.33;;
10248;SDS011;5169;50.560;9.714;2023-12-22T08:30:12;233.97;;;52.57;;
10248;SDS011;5169;50.560;9.714;2023-12-22T08:32:39;237.83;;;52.70;;
10248;SDS011;5169;50.560;9.714;2023-12-22T08:35:05;235.23;;;52.80;;
10248;SDS011;5169;50.560;9.714;2023-12-22T08:37:31;236.30;;;52.97;;
10248;SDS011;5169;50.560;9.714;2023-12-22T08:39:57;237.90;;;53.40;;
10248;SDS011;5169;50.560;9.714;2023-12-22T08:42:23;234.63;;;52.97;;
10248;SDS011;5169;50.560;9.714;2023-12-22T08:44:52;235.33;;;52.63;;
10248;SDS011;5169;50.560;9.714;2023-12-22T08:47:20;237.37;;;53.00;;
10248;SDS011;5169;50.560;9.714;2023-12-22T08:49:45;239.23;;;52.90;;
10248;SDS011;5169;50.560;9.714;2023-12-22T08:52:11;238.30;;;52.83;;
10248;SDS011;5169;50.560;9.714;2023-12-22T08:54:38;242.30;;;53.33;;
10248;SDS011;5169;50.560;9.714;2023-12-22T08:57:04;66.20;;;15.37;;
10248;SDS011;5169;50.560;9.714;2023-12-22T08:59:31;3.63;;;1.07;;
10248;SDS011;5169;50.560;9.714;2023-12-22T09:01:57;5.43;;;1.50;;
10248;SDS011;5169;50.560;9.714;2023-12-22T09:04:25;6.37;;;2.30;;
10248;SDS011;5169;50.560;9.714;2023-12-22T09:06:52;4.43;;;1.70;;
10248;SDS011;5169;50.560;9.714;2023-12-22T09:09:18;3.10;;;1.10;;
10248;SDS011;5169;50.560;9.714;2023-12-22T09:11:44;6.73;;;1.57;;
10248;SDS011;5169;50.560;9.714;2023-12-22T09:14:09;10.00;;;2.70;;
10248;SDS011;5169;50.560;9.714;2023-12-22T09:16:36;13.07;;;6.13;;
10248;SDS011;5169;50.560;9.714;2023-12-22T09:19:02;4.80;;;1.63;;
10248;SDS011;5169;50.560;9.714;2023-12-22T09:21:28;3.00;;;1.00;;
10248;SDS011;5169;50.560;9.714;2023-12-22T09:23:56;2.97;;;1.07;;
10248;SDS011;5169;50.560;9.714;2023-12-22T09:26:22;5.07;;;1.40;;
10248;SDS011;5169;50.560;9.714;2023-12-22T09:28:53;3.07;;;1.53;;
10248;SDS011;5169;50.560;9.714;2023-12-22T09:31:20;4.47;;;1.10;;
10248;SDS011;5169;50.560;9.714;2023-12-22T09:33:47;4.90;;;1.37;;
10248;SDS011;5169;50.560;9.714;2023-12-22T09:36:13;4.93;;;1.50;;
10248;SDS011;5169;50.560;9.714;2023-12-22T09:38:39;9.83;;;1.77;;
10248;SDS011;5169;50.560;9.714;2023-12-22T09:41:08;8.47;;;1.73;;
10248;SDS011;5169;50.560;9.714;2023-12-22T09:43:35;5.67;;;1.33;;
10248;SDS011;5169;50.560;9.714;2023-12-22T09:46:04;5.17;;;1.33;;
10248;SDS011;5169;50.560;9.714;2023-12-22T09:48:31;4.63;;;1.20;;
10248;SDS011;5169;50.560;9.714;2023-12-22T09:51:00;6.60;;;1.50;;
10248;SDS011;5169;50.560;9.714;2023-12-22T09:53:30;6.37;;;1.43;;
10248;SDS011;5169;50.560;9.714;2023-12-22T09:55:58;10.37;;;2.10;;
10248;SDS011;5169;50.560;9.714;2023-12-22T09:58:25;7.87;;;1.50;;
10248;SDS011;5169;50.560;9.714;2023-12-22T10:00:51;4.67;;;1.50;;
10248;SDS011;5169;50.560;9.714;2023-12-22T10:03:18;5.33;;;2.10;;
10248;SDS011;5169;50.560;9.714;2023-12-22T10:05:45;5.27;;;1.70;;
10248;SDS011;5169;50.560;9.714;2023-12-22T10:08:14;5.37;;;1.73;;
10248;SDS011;5169;50.560;9.714;2023-12-22T10:10:40;4.97;;;1.70;;
10248;SDS011;5169;50.560;9.714;2023-12-22T10:13:09;2.63;;;1.13;;
10248;SDS011;5169;50.560;9.714;2023-12-22T10:15:39;8.20;;;1.90;;
10248;SDS011;5169;50.560;9.714;2023-12-22T10:18:08;3.27;;;1.73;;
10248;SDS011;5169;50.560;9.714;2023-12-22T10:20:35;4.83;;;1.43;;
10248;SDS011;5169;50.560;9.714;2023-12-22T10:23:01;7.37;;;1.50;;
10248;SDS011;5169;50.560;9.714;2023-12-22T10:25:32;7.03;;;1.50;;
10248;SDS011;5169;50.560;9.714;2023-12-22T10:28:00;4.17;;;1.20;;
10248;SDS011;5169;50.560;9.714;2023-12-22T10:30:27;1.93;;;1.10;;
10248;SDS011;5169;50.560;9.714;2023-12-22T10:32:53;3.80;;;1.30;;
10248;SDS011;5169;50.560;9.714;2023-12-22T10:35:21;3.33;;;1.20;;
10248;SDS011;5169;50.560;9.714;2023-12-22T10:37:47;4.17;;;0.97;;
10248;SDS011;5169;50.560;9.714;2023-12-22T10:40:13;3.93;;;1.20;;
10248;SDS011;5169;50.560;9.714;2023-12-22T10:42:41;4.10;;;1.03;;
10248;SDS011;5169;50.560;9.714;2023-12-22T10:45:07;3.97;;;1.33;;
10248;SDS011;5169;50.560;9.714;2023-12-22T10:47:33;3.33;;;1.13;;
10248;SDS011;5169;50.560;9.714;2023-12-22T10:50:02;3.17;;;0.80;;
10248;SDS011;5169;50.560;9.714;2023-12-22T10:52:29;3.57;;;1.03;;
10248;SDS011;5169;50.560;9.714;2023-12-22T10:54:57;3.00;;;1.10;;
10248;SDS011;5169;50.560;9.714;2023-12-22T10:57:23;3.13;;;1.30;;
10248;SDS011;5169;50.560;9.714;2023-12-22T10:59:49;2.40;;;0.90;;
10248;SDS011;5169;50.560;9.714;2023-12-22T11:02:17;5.10;;;1.20;;
10248;SDS011;5169;50.560;9.714;2023-12-22T11:05:04;2.43;;;1.10;;
10248;SDS011;5169;50.560;9.714;2023-12-22T11:07:35;1.90;;;0.90;;
10248;SDS011;5169;50.560;9.714;2023-12-22T11:10:05;5.53;;;1.30;;
10248;SDS011;5169;50.560;9.714;2023-12-22T11:12:33;3.57;;;0.80;;
10248;SDS011;5169;50.560;9.714;2023-12-22T11:15:06;6.03;;;1.30;;
10248;SDS011;5169;50.560;9.714;2023-12-22T11:17:32;3.17;;;1.00;;
10248;SDS011;5169;50.560;9.714;2023-12-22T11:19:58;4.83;;;1.20;;
10248;SDS011;5169;50.560;9.714;2023-12-22T11:22:24;5.20;;;1.57;;
10248;SDS011;5169;50.560;9.714;2023-12-22T11:24:51;4.20;;;1.50;;
10248;SDS011;5169;50.560;9.714;2023-12-22T11:27:20;3.40;;;1.20;;
10248;SDS011;5169;50.560;9.714;2023-12-22T11:29:49;5.00;;;1.30;;
10248;SDS011;5169;50.560;9.714;2023-12-22T11:32:18;5.57;;;1.77;;
10248;SDS011;5169;50.560;9.714;2023-12-22T11:34:46;4.87;;;1.70;;
10248;SDS011;5169;50.560;9.714;2023-12-22T11:37:14;5.23;;;1.50;;
10248;SDS011;5169;50.560;9.714;2023-12-22T11:39:43;8.37;;;1.90;;
10248;SDS011;5169;50.560;9.714;2023-12-22T11:42:15;6.83;;;1.87;;
10248;SDS011;5169;50.560;9.714;2023-12-22T11:44:46;5.33;;;1.60;;
10248;SDS011;5169;50.560;9.714;2023-12-22T11:47:12;6.37;;;1.90;;
10248;SDS011;5169;50.560;9.714;2023-12-22T11:49:41;3.87;;;1.37;;
10248;SDS011;5169;50.560;9.714;2023-12-22T11:52:11;5.50;;;1.43;;
10248;SDS011;5169;50.560;9.714;2023-12-22T11:59:57;2.30;;;1.10;;
10248;SDS011;5169;50.560;9.714;2023-12-22T12:02:29;2.07;;;0.90;;
10248;SDS011;5169;50.560;9.714;2023-12-22T12:04:56;2.93;;;0.93;;
10248;SDS011;5169;50.560;9.714;2023-12-22T12:07:38;2.03;;;1.03;;
10248;SDS011;5169;50.560;9.714;2023-12-22T12:10:06;1.87;;;1.00;;
10248;SDS011;5169;50.560;9.714;2023-12-22T12:12:32;3.10;;;1.77;;
10248;SDS011;5169;50.560;9.714;2023-12-22T12:15:01;3.80;;;1.00;;
10248;SDS011;5169;50.560;9.714;2023-12-22T12:17:32;2.27;;;0.87;;
10248;SDS011;5169;50.560;9.714;2023-12-22T12:20:02;3.00;;;1.03;;
10248;SDS011;5169;50.560;9.714;2023-12-22T12:22:29;4.30;;;1.80;;
10248;SDS011;5169;50.560;9.714;2023-12-22T12:24:56;2.93;;;2.00;;
10248;SDS011;5169;50.560;9.714;2023-12-22T12:27:22;4.50;;;2.07;;
10248;SDS011;5169;50.560;9.714;2023-12-22T12:29:52;4.43;;;1.20;;
10248;SDS011;5169;50.560;9.714;2023-12-22T12:32:24;6.20;;;1.87;;
10248;SDS011;5169;50.560;9.714;2023-12-22T12:34:53;3.13;;;1.40;;
10248;SDS011;5169;50.560;9.714;2023-12-22T12:37:24;2.43;;;1.30;;
10248;SDS011;5169;50.560;9.714;2023-12-22T12:39:49;2.13;;;0.90;;
10248;SDS011;5169;50.560;9.714;2023-12-22T12:42:21;3.00;;;0.97;;
10248;SDS011;5169;50.560;9.714;2023-12-22T12:44:50;1.30;;;0.90;;
10248;SDS011;5169;50.560;9.714;2023-12-22T12:47:17;2.50;;;1.27;;
10248;SDS011;5169;50.560;9.714;2023-12-22T12:49:43;3.67;;;2.03;;
10248;SDS011;5169;50.560;9.714;2023-12-22T12:52:15;2.30;;;1.00;;
10248;SDS011;5169;50.560;9.714;2023-12-22T12:54:40;2.10;;;1.10;;
10248;SDS011;5169;50.560;9.714;2023-12-22T12:57:13;3.77;;;1.60;;
10248;SDS011;5169;50.560;9.714;2023-12-22T12:59:51;4.07;;;2.20;;
10248;SDS011;5169;50.560;9.714;2023-12-22T13:02:17;3.83;;;1.10;;
10248;SDS011;5169;50.560;9.714;2023-12-22T13:04:44;1.57;;;1.10;;
10248;SDS011;5169;50.560;9.714;2023-12-22T13:07:09;1.90;;;1.07;;
10248;SDS011;5169;50.560;9.714;2023-12-22T13:09:38;1.73;;;0.90;;
10248;SDS011;5169;50.560;9.714;2023-12-22T13:12:07;3.57;;;1.30;;
10248;SDS011;5169;50.560;9.714;2023-12-22T15:19:58;2.00;;;1.03;;
10248;SDS011;5169;50.560;9.714;2023-12-22T15:22:28;0.90;;;0.73;;
10248;SDS011;5169;50.560;9.714;2023-12-22T15:24:59;1.40;;;0.70;;
10248;SDS011;5169;50.560;9.714;2023-12-22T15:27:24;0.70;;;0.70;;
10248;SDS011;5169;50.560;9.714;2023-12-22T15:29:52;0.60;;;0.53;;
10248;SDS011;5169;50.560;9.714;2023-12-22T15:32:18;1.03;;;0.77;;
10248;SDS011;5169;50.560;9.714;2023-12-22T15:34:44;0.50;;;0.50;;
10248;SDS011;5169;50.560;9.714;2023-12-22T15:37:11;1.63;;;0.80;;
10248;SDS011;5169;50.560;9.714;2023-12-22T15:39:36;1.43;;;0.90;;
10248;SDS011;5169;50.560;9.714;2023-12-22T15:42:02;1.67;;;0.97;;
10248;SDS011;5169;50.560;9.714;2023-12-22T15:44:30;2.33;;;0.80;;
10248;SDS011;5169;50.560;9.714;2023-12-22T15:46:58;1.33;;;0.70;;
10248;SDS011;5169;50.560;9.714;2023-12-22T15:49:26;0.93;;;0.80;;
10248;SDS011;5169;50.560;9.714;2023-12-22T15:51:55;1.80;;;0.90;;
10248;SDS011;5169;50.560;9.714;2023-12-22T15:54:24;1.20;;;0.90;;
10248;SDS011;5169;50.560;9.714;2023-12-22T15:56:49;1.60;;;1.10;;
10248;SDS011;5169;50.560;9.714;2023-12-22T15:59:15;1.90;;;0.80;;
10248;SDS011;5169;50.560;9.714;2023-12-22T16:01:43;1.37;;;1.10;;
10248;SDS011;5169;50.560;9.714;2023-12-22T16:04:10;2.67;;;1.10;;
10248;SDS011;5169;50.560;9.714;2023-12-22T16:06:36;1.73;;;1.00;;
10248;SDS011;5169;50.560;9.714;2023-12-22T16:09:02;1.00;;;0.77;;
10248;SDS011;5169;50.560;9.714;2023-12-22T16:11:29;1.43;;;1.00;;
10248;SDS011;5169;50.560;9.714;2023-12-22T16:13:55;1.73;;;1.00;;
10248;SDS011;5169;50.560;9.714;2023-12-22T16:16:22;1.47;;;0.90;;
10248;SDS011;5169;50.560;9.714;2023-12-22T16:18:48;1.57;;;1.00;;
10248;SDS011;5169;50.560;9.714;2023-12-22T16:21:15;1.47;;;1.00;;
10248;SDS011;5169;50.560;9.714;2023-12-22T16:23:42;1.60;;;1.27;;
10248;SDS011;5169;50.560;9.714;2023-12-22T16:26:12;1.80;;;1.27;;
10248;SDS011;5169;50.560;9.714;2023-12-22T16:28:43;2.70;;;1.50;;
10248;SDS011;5169;50.560;9.714;2023-12-22T16:31:08;1.60;;;1.30;;
10248;SDS011;5169;50.560;9.714;2023-12-22T16:33:35;3.20;;;1.50;;
10248;SDS011;5169;50.560;9.714;2023-12-22T16:36:06;3.67;;;2.10;;
10248;SDS011;5169;50.560;9.714;2023-12-22T16:38:36;3.50;;;1.80;;
10248;SDS011;5169;50.560;9.714;2023-12-22T16:41:05;3.23;;;2.10;;
10248;SDS011;5169;50.560;9.714;2023-12-22T16:43:31;1.87;;;1.60;;
10248;SDS011;5169;50.560;9.714;2023-12-22T16:45:58;2.53;;;1.70;;
10248;SDS011;5169;50.560;9.714;2023-12-22T16:48:24;4.80;;;1.73;;
10248;SDS011;5169;50.560;9.714;2023-12-22T16:50:49;2.83;;;1.80;;
10248;SDS011;5169;50.560;9.714;2023-12-22T16:53:15;2.60;;;1.80;;
10248;SDS011;5169;50.560;9.714;2023-12-22T16:55:41;2.60;;;1.10;;
10248;SDS011;5169;50.560;9.714;2023-12-22T16:58:07;3.47;;;1.20;;
10248;SDS011;5169;50.560;9.714;2023-12-22T17:00:32;1.80;;;1.10;;
10248;SDS011;5169;50.560;9.714;2023-12-22T17:02:58;3.57;;;1.57;;
10248;SDS011;5169;50.560;9.714;2023-12-22T17:05:23;2.93;;;1.43;;
10248;SDS011;5169;50.560;9.714;2023-12-22T17:07:49;3.57;;;1.67;;
10248;SDS011;5169;50.560;9.714;2023-12-22T17:10:15;4.13;;;1.83;;
10248;SDS011;5169;50.560;9.714;2023-12-22T17:12:43;3.17;;;1.50;;
10248;SDS011;5169;50.560;9.714;2023-12-22T17:15:09;3.40;;;1.50;;